Terminal Aerodrome Forecast
Issued by NWS

Home | Current Version | Previous Version | Text Only | Print | Product List | Glossary On
Versions: 1 2 3 4 5 6 7 8 9 10 11 12 13 14 15 16
000
FTUS43 KEAX 130800 AAA
TAFMKC
TAF AMD
KMKC 130807Z 1308/1406 03002KT P6SM SKC
      TEMPO 1310/1313 3SM BR
     FM131600 12007KT P6SM SKC=

USA.gov is the U.S. government's official web portal to all federal, state and local government web resources and services.